Sankt Peterburg — UFZC — position and weather

sailwx.info

Track history (hours):
 
Tides and Currents Weather Stations Pressure Air Temp Water Temp Dewpoint Dewpoint Depression Visibility Wind Speed Wind Dir Waves Ship Positions

Sankt Peterburg

Last reported at 2017-Dec-21 21:57 UTC. Time now 2018-Feb-22 14:58 UTC.
Position N 45°33' E 036°50'.
Warning: this ship's position is months out of date.

Length 141 m; draft 2.9 m.

Type: Ship. MMSI: 273443330.

Date/timePositionNaut miles runAvg speedWind from/ knotsBaromVisibWave heightAir tempDewpointWater temp
2017-Dec-21 21:57N 45°33' E 036°50'3 6.0
2017-Dec-21 21:31N 45°31' E 036°49'3 5.8
2017-Dec-21 21:00N 45°28' E 036°47'3 5.7
2017-Dec-21 20:30N 45°26' E 036°44'3 6.5
2017-Dec-21 20:00N 45°24' E 036°41'3 6.1
2017-Dec-21 19:31N 45°21' E 036°39'3 6.0
2017-Dec-21 19:00N 45°20' E 036°35'3 6.2
2017-Dec-21 18:30N 45°19' E 036°31'3 5.7
2017-Dec-21 18:01N 45°16' E 036°29'3 5.5
2017-Dec-21 17:30N 45°14' E 036°29'3 4.0
2017-Dec-21 16:48N 45°11' E 036°30'0 0.5
2017-Dec-21 16:25N 45°11' E 036°30'0 0.0
2017-Dec-21 15:58N 45°11' E 036°30'0 0.0
2017-Dec-21 15:28N 45°11' E 036°30'0 0.0
2017-Dec-21 14:58N 45°11' E 036°30'0 0.0
2017-Dec-21 14:29N 45°11' E 036°30'5 4.3
2017-Dec-21 13:18N 45°07' E 036°34'1 0.0
2017-Dec-20 23:56N 45°07' E 036°33'3 6.3
2017-Dec-20 23:29N 45°09' E 036°30'3 6.4
2017-Dec-20 23:00N 45°11' E 036°28'3 6.5
2017-Dec-20 22:30N 45°15' E 036°28'3 5.9
2017-Dec-20 21:58N 45°18' E 036°29'3 5.9
2017-Dec-20 21:30N 45°19' E 036°32'2 3.7
2017-Dec-20 21:00N 45°19' E 036°35'3 5.3
2017-Dec-20 20:31N 45°20' E 036°38'2 4.0
2017-Dec-20 20:00N 45°22' E 036°40'2 4.8
2017-Dec-20 19:30N 45°24' E 036°41'3 6.3
2017-Dec-20 18:59N 45°27' E 036°43'2 4.5
2017-Dec-20 18:30N 45°29' E 036°44'0 0.1
2017-Dec-20 16:25N 45°29' E 036°44'0 0.0
2017-Dec-20 15:49N 45°29' E 036°44'0 0.0
2017-Dec-20 15:25N 45°29' E 036°44'0 0.0
2017-Dec-20 14:58N 45°29' E 036°44'0 0.0
2017-Dec-20 14:28N 45°29' E 036°44'0 0.0
2017-Dec-20 13:58N 45°29' E 036°44'0 0.0
2017-Dec-20 13:25N 45°29' E 036°44'0 0.0
2017-Dec-20 12:58N 45°29' E 036°44'0 0.0
2017-Dec-20 12:16N 45°29' E 036°44'0 0.0
2017-Dec-20 11:58N 45°29' E 036°44'0 0.0
2017-Dec-20 11:28N 45°29' E 036°44'0 0.0
2017-Dec-20 10:55N 45°29' E 036°44'0 0.0
2017-Dec-20 10:25N 45°29' E 036°44'0 0.0
2017-Dec-20 09:13N 45°29' E 036°44'0 0.0
2017-Dec-20 08:16N 45°29' E 036°44'0 0.0
2017-Dec-20 07:58N 45°29' E 036°44'0 0.0
2017-Dec-20 07:28N 45°29' E 036°44'0 0.0
2017-Dec-20 06:58N 45°29' E 036°44'0 0.1
2017-Dec-20 06:28N 45°29' E 036°44'0 0.0
2017-Dec-20 05:58N 45°29' E 036°44'0 0.0
2017-Dec-20 05:28N 45°29' E 036°44'0 0.0
2017-Dec-20 04:58N 45°29' E 036°44'0 0.0
2017-Dec-20 04:28N 45°29' E 036°44'0 0.0
2017-Dec-20 03:58N 45°29' E 036°44'0 0.0
2017-Dec-20 03:25N 45°29' E 036°44'0 0.0
2017-Dec-20 02:58N 45°29' E 036°44'0 0.0
2017-Dec-20 02:25N 45°29' E 036°44'0 0.0
2017-Dec-20 01:55N 45°29' E 036°44'0 0.0
2017-Dec-20 01:25N 45°29' E 036°44'0 0.0
2017-Dec-20 00:55N 45°29' E 036°44'0 0.0
2017-Dec-20 00:28N 45°29' E 036°44'0 0.0
2017-Dec-19 23:58N 45°29' E 036°44'0 0.0
2017-Dec-19 23:28N 45°29' E 036°44'0 0.0
2017-Dec-19 22:58N 45°29' E 036°44'0 0.0
2017-Dec-19 22:28N 45°29' E 036°44'0 0.0
2017-Dec-19 21:58N 45°29' E 036°44'0 0.0
2017-Dec-19 21:25N 45°29' E 036°44'0 0.0
2017-Dec-19 20:58N 45°29' E 036°44'0 0.0
2017-Dec-19 20:28N 45°29' E 036°44'0 0.0
2017-Dec-19 19:55N 45°29' E 036°44'0 0.0
2017-Dec-19 19:25N 45°29' E 036°44'0 0.0
2017-Dec-19 18:58N 45°29' E 036°44'0 0.0
2017-Dec-19 18:28N 45°29' E 036°44'0 0.0
2017-Dec-19 17:58N 45°29' E 036°44'0 0.0
2017-Dec-19 17:25N 45°29' E 036°44'0 0.0
2017-Dec-19 16:58N 45°29' E 036°44'0 0.0
2017-Dec-19 16:28N 45°29' E 036°44'0 0.0
2017-Dec-19 15:52N 45°29' E 036°44'0 0.0
2017-Dec-19 15:28N 45°29' E 036°44'0 0.0
2017-Dec-19 14:58N 45°29' E 036°44'0 0.0
2017-Dec-19 14:28N 45°29' E 036°44'0 0.0
2017-Dec-19 13:58N 45°29' E 036°44'0 0.0
2017-Dec-19 13:28N 45°29' E 036°44'0 0.0
2017-Dec-19 12:58N 45°29' E 036°44'0 0.0
2017-Dec-19 12:28N 45°29' E 036°44'0 0.0
2017-Dec-19 11:55N 45°29' E 036°44'0 0.0
2017-Dec-19 11:28N 45°29' E 036°44'0 0.0
2017-Dec-19 10:58N 45°29' E 036°44'0 0.0
2017-Dec-19 10:28N 45°29' E 036°44'0 0.0
2017-Dec-19 09:58N 45°29' E 036°44'0 0.0
2017-Dec-19 09:28N 45°29' E 036°44'0 0.0
2017-Dec-19 08:58N 45°29' E 036°44'0 0.0
2017-Dec-19 08:28N 45°29' E 036°44'0 0.0
2017-Dec-19 07:58N 45°29' E 036°44'0 0.0
2017-Dec-19 07:25N 45°29' E 036°44'0 0.0
2017-Dec-19 06:58N 45°29' E 036°44'0 0.0
2017-Dec-19 06:28N 45°29' E 036°44'0 0.0
2017-Dec-19 05:58N 45°29' E 036°44'0 0.0
2017-Dec-19 05:28N 45°29' E 036°44'0 0.0
2017-Dec-19 04:55N 45°29' E 036°44'0 0.0
2017-Dec-19 04:28N 45°29' E 036°44'0 0.0
2017-Dec-19 03:22N 45°29' E 036°44'0 0.0
2017-Dec-18 22:04N 45°29' E 036°44'0 0.0
2017-Dec-18 21:58N 45°29' E 036°44'0 0.0
2017-Dec-18 21:25N 45°29' E 036°44'0 0.0
2017-Dec-18 21:01N 45°29' E 036°44'0 0.0
2017-Dec-18 20:28N 45°29' E 036°44'0 0.0
2017-Dec-18 19:58N 45°29' E 036°44'0 0.0
2017-Dec-18 19:28N 45°29' E 036°44'0 0.0
2017-Dec-18 19:01N 45°29' E 036°44'0 0.0
2017-Dec-18 18:31N 45°29' E 036°44'0 0.0
2017-Dec-18 18:01N 45°29' E 036°44'0 0.0
2017-Dec-18 17:31N 45°29' E 036°44'0 0.0
2017-Dec-18 15:57N 45°29' E 036°44'0 0.0
2017-Dec-18 15:27N 45°29' E 036°44'0 0.0
2017-Dec-18 14:57N 45°29' E 036°44'0 0.0
2017-Dec-18 14:30N 45°29' E 036°44'0 0.0
2017-Dec-18 13:57N 45°29' E 036°44'0 0.0
2017-Dec-18 13:27N 45°29' E 036°44'0 0.0
2017-Dec-18 12:15N 45°29' E 036°44'0 0.0
2017-Dec-18 11:51N 45°29' E 036°44'0 0.0
2017-Dec-18 11:27N 45°29' E 036°44'0 0.0
2017-Dec-18 11:00N 45°29' E 036°44'0 0.0
2017-Dec-18 10:30N 45°29' E 036°44'0 0.0
2017-Dec-18 10:00N 45°29' E 036°44'0 0.0
2017-Dec-18 09:30N 45°29' E 036°44'0 0.0
2017-Dec-18 09:00N 45°29' E 036°44'0 0.0
2017-Dec-18 08:27N 45°29' E 036°44'0 0.0
2017-Dec-18 06:21N 45°29' E 036°44'0 0.0
2017-Dec-18 06:00N 45°29' E 036°44'0 0.1
2017-Dec-18 05:30N 45°29' E 036°44'0 0.0
2017-Dec-18 04:12N 45°29' E 036°44'0 0.1
2017-Dec-18 03:54N 45°29' E 036°44'0 0.0
2017-Dec-18 03:30N 45°29' E 036°44'0 0.0
2017-Dec-18 02:57N 45°29' E 036°44'0 0.0
2017-Dec-17 19:06N 45°29' E 036°44'0 0.0
2017-Dec-17 19:00N 45°29' E 036°44'0 0.0
2017-Dec-17 18:06N 45°29' E 036°44'0 0.0
2017-Dec-17 18:00N 45°29' E 036°44'0 0.0
2017-Dec-17 17:15N 45°29' E 036°44'0 0.0
2017-Dec-17 12:27N 45°29' E 036°44'0 0.0
2017-Dec-17 11:15N 45°29' E 036°44'0 0.2
2017-Dec-17 11:00N 45°29' E 036°44'0 0.2
2017-Dec-17 10:30N 45°29' E 036°44'0 0.0
2017-Dec-17 10:00N 45°29' E 036°44'0 0.0
2017-Dec-17 09:27N 45°29' E 036°44'0 0.0
2017-Dec-17 09:00N 45°29' E 036°44'0 0.0
2017-Dec-17 08:30N 45°29' E 036°44'0 0.0
2017-Dec-17 08:00N 45°29' E 036°44'0 0.1
2017-Dec-17 07:27N 45°29' E 036°44'0 0.1
2017-Dec-17 06:54N 45°29' E 036°44'0 0.0
2017-Dec-17 06:30N 45°29' E 036°44'0 0.0
2017-Dec-17 06:00N 45°29' E 036°44'0 0.0
2017-Dec-17 05:06N 45°29' E 036°44'0 0.0
2017-Dec-17 05:00N 45°29' E 036°44'0 0.1
2017-Dec-17 04:30N 45°29' E 036°44'0 0.0
2017-Dec-17 03:51N 45°29' E 036°44'0 0.0
2017-Dec-17 03:15N 45°29' E 036°44'0 0.0
2017-Dec-17 03:00N 45°29' E 036°44'0 0.1
2017-Dec-17 02:30N 45°29' E 036°44'0 0.0
2017-Dec-16 23:57N 45°29' E 036°44'0 0.0
2017-Dec-16 23:24N 45°29' E 036°44'0 0.0
2017-Dec-16 23:00N 45°29' E 036°44'0 0.0
2017-Dec-16 21:06N 45°29' E 036°44'0 0.0
2017-Dec-16 19:45N 45°29' E 036°44'0 0.0
2017-Dec-16 19:15N 45°29' E 036°44'0 0.0
2017-Dec-16 17:45N 45°29' E 036°44'0 0.0
2017-Dec-16 17:27N 45°29' E 036°44'0 0.0
2017-Dec-16 16:30N 45°29' E 036°44'0 0.0
2017-Dec-16 15:15N 45°29' E 036°44'0 0.0
2017-Dec-16 14:57N 45°29' E 036°44'0 0.0
2017-Dec-16 14:30N 45°29' E 036°44'0 0.0
2017-Dec-16 13:24N 45°29' E 036°44'0 0.0
2017-Dec-16 13:00N 45°29' E 036°44'0 0.0
2017-Dec-16 12:30N 45°29' E 036°44'0 0.0
2017-Dec-16 12:00N 45°29' E 036°44'0 0.0
2017-Dec-16 11:30N 45°29' E 036°44'0 0.0
2017-Dec-16 10:57N 45°29' E 036°44'0 0.0
2017-Dec-16 10:27N 45°29' E 036°44'0 0.0
2017-Dec-16 09:57N 45°29' E 036°44'0 0.0
2017-Dec-16 09:06N 45°29' E 036°44'0 0.0
2017-Dec-16 08:48N 45°29' E 036°44'0 0.0
2017-Dec-16 08:24N 45°29' E 036°44'0 0.0
2017-Dec-16 08:00N 45°29' E 036°44'0 0.1
2017-Dec-16 07:30N 45°29' E 036°44'0 0.0
2017-Dec-16 07:00N 45°29' E 036°44'0 0.0
2017-Dec-16 06:21N 45°29' E 036°44'0 0.0
2017-Dec-16 06:00N 45°29' E 036°44'0 0.0
2017-Dec-16 05:27N 45°29' E 036°44'0 0.0
2017-Dec-16 05:00N 45°29' E 036°44'0 0.0
2017-Dec-16 04:30N 45°29' E 036°44'0 0.0
2017-Dec-16 03:57N 45°29' E 036°44'0 0.0
2017-Dec-16 03:27N 45°29' E 036°44'0 0.0
2017-Dec-16 03:00N 45°29' E 036°44'0 0.0
2017-Dec-16 02:30N 45°29' E 036°44'0 0.0
2017-Dec-16 01:03N 45°29' E 036°44'0 0.1
2017-Dec-16 00:51N 45°29' E 036°44'0 0.0
2017-Dec-16 00:30N 45°29' E 036°44'0 0.0
2017-Dec-15 23:12N 45°29' E 036°44'0 0.0
2017-Dec-15 22:18N 45°29' E 036°44'0 0.0
2017-Dec-15 22:00N 45°29' E 036°44'0 0.0
2017-Dec-15 21:30N 45°29' E 036°44'0 0.0
2017-Dec-15 20:30N 45°29' E 036°44'0 0.0
2017-Dec-15 18:09N 45°29' E 036°44'0 0.0
2017-Dec-15 17:51N 45°29' E 036°44'0 0.0
2017-Dec-15 17:12N 45°29' E 036°44'0 0.0
2017-Dec-15 14:39N 45°29' E 036°44'0 0.0
2017-Dec-15 13:15N 45°29' E 036°44'0 0.0
2017-Dec-15 12:45N 45°29' E 036°44'0 0.1
2017-Dec-15 12:30N 45°29' E 036°44'0 0.0
2017-Dec-15 12:00N 45°29' E 036°44'0 0.0
2017-Dec-15 11:27N 45°29' E 036°44'0 0.0
2017-Dec-15 11:00N 45°29' E 036°44'0 0.1
2017-Dec-15 10:30N 45°29' E 036°44'0 0.0
2017-Dec-15 10:00N 45°29' E 036°44'0 0.1
2017-Dec-15 09:30N 45°29' E 036°44'0 0.0
2017-Dec-15 08:57N 45°29' E 036°44'0 0.0
2017-Dec-15 08:30N 45°29' E 036°44'0 0.1
2017-Dec-15 08:00N 45°29' E 036°44'0 0.0
2017-Dec-15 06:30N 45°29' E 036°44'0 0.0
2017-Dec-15 05:18N 45°29' E 036°44'0 0.1
2017-Dec-15 04:45N 45°29' E 036°44'0 0.1
2017-Dec-15 04:30N 45°29' E 036°44'0 0.0
2017-Dec-15 04:00N 45°29' E 036°44'0 0.0
2017-Dec-15 00:33N 45°29' E 036°44'0 0.0
2017-Dec-15 00:21N 45°29' E 036°44'0 0.0
2017-Dec-14 07:06N 45°29' E 036°44'0 0.0
2017-Dec-14 05:12N 45°29' E 036°44'0 0.0
2017-Dec-14 05:00N 45°29' E 036°44'0 0.0
2017-Dec-14 04:18N 45°29' E 036°44'0 0.0
2017-Dec-14 03:48N 45°29' E 036°44'0 0.0
2017-Dec-14 03:09N 45°29' E 036°44'0 0.0
2017-Dec-14 01:30N 45°29' E 036°44'0 0.0
2017-Dec-13 21:14N 45°29' E 036°44'0 0.0
2017-Dec-13 20:59N 45°29' E 036°44'0 0.0
2017-Dec-13 20:14N 45°29' E 036°44'0 0.0
2017-Dec-13 19:59N 45°29' E 036°44'0 0.0
2017-Dec-13 19:29N 45°29' E 036°44'0 0.0
2017-Dec-13 13:38N 45°29' E 036°44'0 0.0
2017-Dec-13 12:38N 45°29' E 036°44'0 0.0
2017-Dec-13 12:26N 45°29' E 036°44'0 0.0
2017-Dec-13 10:29N 45°29' E 036°44'0 0.0
2017-Dec-13 09:53N 45°29' E 036°44'0 0.0
2017-Dec-13 09:29N 45°29' E 036°44'0 0.0
2017-Dec-13 08:53N 45°29' E 036°44'0 0.0
2017-Dec-13 08:23N 45°29' E 036°44'0 0.0
2017-Dec-13 07:59N 45°29' E 036°44'0 0.0
2017-Dec-13 07:08N 45°29' E 036°44'0 0.0
2017-Dec-13 06:53N 45°29' E 036°44'0 0.0
2017-Dec-13 03:08N 45°29' E 036°44'0 0.0
2017-Dec-13 02:53N 45°29' E 036°44'0 0.0
2017-Dec-13 02:17N 45°29' E 036°44'0 0.0
2017-Dec-13 01:59N 45°29' E 036°44'0 0.0
2017-Dec-12 18:50N 45°29' E 036°44'0 0.0
2017-Dec-12 18:29N 45°29' E 036°44'0 0.0
2017-Dec-12 17:56N 45°29' E 036°44'0 0.0
2017-Dec-12 17:29N 45°29' E 036°44'0 0.0
2017-Dec-12 16:53N 45°29' E 036°44'0 0.0
2017-Dec-12 16:29N 45°29' E 036°44'0 0.0
2017-Dec-12 15:26N 45°29' E 036°44'0 0.0
2017-Dec-12 14:44N 45°29' E 036°44'0 0.0
2017-Dec-12 14:20N 45°29' E 036°44'0 0.0
2017-Dec-12 13:53N 45°29' E 036°44'0 0.0
2017-Dec-12 13:26N 45°29' E 036°44'0 0.0
2017-Dec-12 12:50N 45°29' E 036°44'0 0.0
2017-Dec-12 11:32N 45°29' E 036°44'0 0.0
2017-Dec-12 11:23N 45°29' E 036°44'0 0.0
2017-Dec-12 10:08N 45°29' E 036°44'0 0.0
2017-Dec-12 09:53N 45°29' E 036°44'0 0.0
2017-Dec-12 09:17N 45°29' E 036°44'0 0.0
2017-Dec-12 04:05N 45°29' E 036°44'0 0.0
2017-Dec-12 01:23N 45°29' E 036°44'0 0.0
2017-Dec-12 00:56N 45°29' E 036°44'0 0.0
2017-Dec-12 00:26N 45°29' E 036°44'0 0.0
2017-Dec-11 23:59N 45°29' E 036°44'0 0.0
2017-Dec-11 23:26N 45°29' E 036°44'0 0.0
2017-Dec-11 22:59N 45°29' E 036°44'0 0.0
2017-Dec-11 22:23N 45°29' E 036°44'  
Track history (hours):
 
Tides and Currents Weather Stations Pressure Air Temp Water Temp Dewpoint Dewpoint Depression Visibility Wind Speed Wind Dir Waves Ship Positions

Sankt Peterburg

Last reported at 2017-Dec-21 21:57 UTC. Time now 2018-Feb-22 14:58 UTC.
Position N 45°33' E 036°50'.
Warning: this ship's position is months out of date.

Length 141 m; draft 2.9 m.

Type: Ship. MMSI: 273443330.

Date/timePositionNaut miles runAvg speedWind from/ knotsBaromVisibWave heightAir tempDewpointWater temp
2017-Dec-21 21:57N 45°33' E 036°50'3 6.0
2017-Dec-21 21:31N 45°31' E 036°49'3 5.8
2017-Dec-21 21:00N 45°28' E 036°47'3 5.7
2017-Dec-21 20:30N 45°26' E 036°44'3 6.5
2017-Dec-21 20:00N 45°24' E 036°41'3 6.1
2017-Dec-21 19:31N 45°21' E 036°39'3 6.0
2017-Dec-21 19:00N 45°20' E 036°35'3 6.2
2017-Dec-21 18:30N 45°19' E 036°31'3 5.7
2017-Dec-21 18:01N 45°16' E 036°29'3 5.5
2017-Dec-21 17:30N 45°14' E 036°29'3 4.0
2017-Dec-21 16:48N 45°11' E 036°30'0 0.5
2017-Dec-21 16:25N 45°11' E 036°30'0 0.0
2017-Dec-21 15:58N 45°11' E 036°30'0 0.0
2017-Dec-21 15:28N 45°11' E 036°30'0 0.0
2017-Dec-21 14:58N 45°11' E 036°30'0 0.0
2017-Dec-21 14:29N 45°11' E 036°30'5 4.3
2017-Dec-21 13:18N 45°07' E 036°34'1 0.0
2017-Dec-20 23:56N 45°07' E 036°33'3 6.3
2017-Dec-20 23:29N 45°09' E 036°30'3 6.4
2017-Dec-20 23:00N 45°11' E 036°28'3 6.5
2017-Dec-20 22:30N 45°15' E 036°28'3 5.9
2017-Dec-20 21:58N 45°18' E 036°29'3 5.9
2017-Dec-20 21:30N 45°19' E 036°32'2 3.7
2017-Dec-20 21:00N 45°19' E 036°35'3 5.3
2017-Dec-20 20:31N 45°20' E 036°38'2 4.0
2017-Dec-20 20:00N 45°22' E 036°40'2 4.8
2017-Dec-20 19:30N 45°24' E 036°41'3 6.3
2017-Dec-20 18:59N 45°27' E 036°43'2 4.5
2017-Dec-20 18:30N 45°29' E 036°44'0 0.1
2017-Dec-20 16:25N 45°29' E 036°44'0 0.0
2017-Dec-20 15:49N 45°29' E 036°44'0 0.0
2017-Dec-20 15:25N 45°29' E 036°44'0 0.0
2017-Dec-20 14:58N 45°29' E 036°44'0 0.0
2017-Dec-20 14:28N 45°29' E 036°44'0 0.0
2017-Dec-20 13:58N 45°29' E 036°44'0 0.0
2017-Dec-20 13:25N 45°29' E 036°44'0 0.0
2017-Dec-20 12:58N 45°29' E 036°44'0 0.0
2017-Dec-20 12:16N 45°29' E 036°44'0 0.0
2017-Dec-20 11:58N 45°29' E 036°44'0 0.0
2017-Dec-20 11:28N 45°29' E 036°44'0 0.0
2017-Dec-20 10:55N 45°29' E 036°44'0 0.0
2017-Dec-20 10:25N 45°29' E 036°44'0 0.0
2017-Dec-20 09:13N 45°29' E 036°44'0 0.0
2017-Dec-20 08:16N 45°29' E 036°44'0 0.0
2017-Dec-20 07:58N 45°29' E 036°44'0 0.0
2017-Dec-20 07:28N 45°29' E 036°44'0 0.0
2017-Dec-20 06:58N 45°29' E 036°44'0 0.1
2017-Dec-20 06:28N 45°29' E 036°44'0 0.0
2017-Dec-20 05:58N 45°29' E 036°44'0 0.0
2017-Dec-20 05:28N 45°29' E 036°44'0 0.0
2017-Dec-20 04:58N 45°29' E 036°44'0 0.0
2017-Dec-20 04:28N 45°29' E 036°44'0 0.0
2017-Dec-20 03:58N 45°29' E 036°44'0 0.0
2017-Dec-20 03:25N 45°29' E 036°44'0 0.0
2017-Dec-20 02:58N 45°29' E 036°44'0 0.0
2017-Dec-20 02:25N 45°29' E 036°44'0 0.0
2017-Dec-20 01:55N 45°29' E 036°44'0 0.0
2017-Dec-20 01:25N 45°29' E 036°44'0 0.0
2017-Dec-20 00:55N 45°29' E 036°44'0 0.0
2017-Dec-20 00:28N 45°29' E 036°44'0 0.0
2017-Dec-19 23:58N 45°29' E 036°44'0 0.0
2017-Dec-19 23:28N 45°29' E 036°44'0 0.0
2017-Dec-19 22:58N 45°29' E 036°44'0 0.0
2017-Dec-19 22:28N 45°29' E 036°44'0 0.0
2017-Dec-19 21:58N 45°29' E 036°44'0 0.0
2017-Dec-19 21:25N 45°29' E 036°44'0 0.0
2017-Dec-19 20:58N 45°29' E 036°44'0 0.0
2017-Dec-19 20:28N 45°29' E 036°44'0 0.0
2017-Dec-19 19:55N 45°29' E 036°44'0 0.0
2017-Dec-19 19:25N 45°29' E 036°44'0 0.0
2017-Dec-19 18:58N 45°29' E 036°44'0 0.0
2017-Dec-19 18:28N 45°29' E 036°44'0 0.0
2017-Dec-19 17:58N 45°29' E 036°44'0 0.0
2017-Dec-19 17:25N 45°29' E 036°44'0 0.0
2017-Dec-19 16:58N 45°29' E 036°44'0 0.0
2017-Dec-19 16:28N 45°29' E 036°44'0 0.0
2017-Dec-19 15:52N 45°29' E 036°44'0 0.0
2017-Dec-19 15:28N 45°29' E 036°44'0 0.0
2017-Dec-19 14:58N 45°29' E 036°44'0 0.0
2017-Dec-19 14:28N 45°29' E 036°44'0 0.0
2017-Dec-19 13:58N 45°29' E 036°44'0 0.0
2017-Dec-19 13:28N 45°29' E 036°44'0 0.0
2017-Dec-19 12:58N 45°29' E 036°44'0 0.0
2017-Dec-19 12:28N 45°29' E 036°44'0 0.0
2017-Dec-19 11:55N 45°29' E 036°44'0 0.0
2017-Dec-19 11:28N 45°29' E 036°44'0 0.0
2017-Dec-19 10:58N 45°29' E 036°44'0 0.0
2017-Dec-19 10:28N 45°29' E 036°44'0 0.0
2017-Dec-19 09:58N 45°29' E 036°44'0 0.0
2017-Dec-19 09:28N 45°29' E 036°44'0 0.0
2017-Dec-19 08:58N 45°29' E 036°44'0 0.0
2017-Dec-19 08:28N 45°29' E 036°44'0 0.0
2017-Dec-19 07:58N 45°29' E 036°44'0 0.0
2017-Dec-19 07:25N 45°29' E 036°44'0 0.0
2017-Dec-19 06:58N 45°29' E 036°44'0 0.0
2017-Dec-19 06:28N 45°29' E 036°44'0 0.0
2017-Dec-19 05:58N 45°29' E 036°44'0 0.0
2017-Dec-19 05:28N 45°29' E 036°44'0 0.0
2017-Dec-19 04:55N 45°29' E 036°44'0 0.0
2017-Dec-19 04:28N 45°29' E 036°44'0 0.0
2017-Dec-19 03:22N 45°29' E 036°44'0 0.0
2017-Dec-18 22:04N 45°29' E 036°44'0 0.0
2017-Dec-18 21:58N 45°29' E 036°44'0 0.0
2017-Dec-18 21:25N 45°29' E 036°44'0 0.0
2017-Dec-18 21:01N 45°29' E 036°44'0 0.0
2017-Dec-18 20:28N 45°29' E 036°44'0 0.0
2017-Dec-18 19:58N 45°29' E 036°44'0 0.0
2017-Dec-18 19:28N 45°29' E 036°44'0 0.0
2017-Dec-18 19:01N 45°29' E 036°44'0 0.0
2017-Dec-18 18:31N 45°29' E 036°44'0 0.0
2017-Dec-18 18:01N 45°29' E 036°44'0 0.0
2017-Dec-18 17:31N 45°29' E 036°44'0 0.0
2017-Dec-18 15:57N 45°29' E 036°44'0 0.0
2017-Dec-18 15:27N 45°29' E 036°44'0 0.0
2017-Dec-18 14:57N 45°29' E 036°44'0 0.0
2017-Dec-18 14:30N 45°29' E 036°44'0 0.0
2017-Dec-18 13:57N 45°29' E 036°44'0 0.0
2017-Dec-18 13:27N 45°29' E 036°44'0 0.0
2017-Dec-18 12:15N 45°29' E 036°44'0 0.0
2017-Dec-18 11:51N 45°29' E 036°44'0 0.0
2017-Dec-18 11:27N 45°29' E 036°44'0 0.0
2017-Dec-18 11:00N 45°29' E 036°44'0 0.0
2017-Dec-18 10:30N 45°29' E 036°44'0 0.0
2017-Dec-18 10:00N 45°29' E 036°44'0 0.0
2017-Dec-18 09:30N 45°29' E 036°44'0 0.0
2017-Dec-18 09:00N 45°29' E 036°44'0 0.0
2017-Dec-18 08:27N 45°29' E 036°44'0 0.0
2017-Dec-18 06:21N 45°29' E 036°44'0 0.0
2017-Dec-18 06:00N 45°29' E 036°44'0 0.1
2017-Dec-18 05:30N 45°29' E 036°44'0 0.0
2017-Dec-18 04:12N 45°29' E 036°44'0 0.1
2017-Dec-18 03:54N 45°29' E 036°44'0 0.0
2017-Dec-18 03:30N 45°29' E 036°44'0 0.0
2017-Dec-18 02:57N 45°29' E 036°44'0 0.0
2017-Dec-17 19:06N 45°29' E 036°44'0 0.0
2017-Dec-17 19:00N 45°29' E 036°44'0 0.0
2017-Dec-17 18:06N 45°29' E 036°44'0 0.0
2017-Dec-17 18:00N 45°29' E 036°44'0 0.0
2017-Dec-17 17:15N 45°29' E 036°44'0 0.0
2017-Dec-17 12:27N 45°29' E 036°44'0 0.0
2017-Dec-17 11:15N 45°29' E 036°44'0 0.2
2017-Dec-17 11:00N 45°29' E 036°44'0 0.2
2017-Dec-17 10:30N 45°29' E 036°44'0 0.0
2017-Dec-17 10:00N 45°29' E 036°44'0 0.0
2017-Dec-17 09:27N 45°29' E 036°44'0 0.0
2017-Dec-17 09:00N 45°29' E 036°44'0 0.0
2017-Dec-17 08:30N 45°29' E 036°44'0 0.0
2017-Dec-17 08:00N 45°29' E 036°44'0 0.1
2017-Dec-17 07:27N 45°29' E 036°44'0 0.1
2017-Dec-17 06:54N 45°29' E 036°44'0 0.0
2017-Dec-17 06:30N 45°29' E 036°44'0 0.0
2017-Dec-17 06:00N 45°29' E 036°44'0 0.0
2017-Dec-17 05:06N 45°29' E 036°44'0 0.0
2017-Dec-17 05:00N 45°29' E 036°44'0 0.1
2017-Dec-17 04:30N 45°29' E 036°44'0 0.0
2017-Dec-17 03:51N 45°29' E 036°44'0 0.0
2017-Dec-17 03:15N 45°29' E 036°44'0 0.0
2017-Dec-17 03:00N 45°29' E 036°44'0 0.1
2017-Dec-17 02:30N 45°29' E 036°44'0 0.0
2017-Dec-16 23:57N 45°29' E 036°44'0 0.0
2017-Dec-16 23:24N 45°29' E 036°44'0 0.0
2017-Dec-16 23:00N 45°29' E 036°44'0 0.0
2017-Dec-16 21:06N 45°29' E 036°44'0 0.0
2017-Dec-16 19:45N 45°29' E 036°44'0 0.0
2017-Dec-16 19:15N 45°29' E 036°44'0 0.0
2017-Dec-16 17:45N 45°29' E 036°44'0 0.0
2017-Dec-16 17:27N 45°29' E 036°44'0 0.0
2017-Dec-16 16:30N 45°29' E 036°44'0 0.0
2017-Dec-16 15:15N 45°29' E 036°44'0 0.0
2017-Dec-16 14:57N 45°29' E 036°44'0 0.0
2017-Dec-16 14:30N 45°29' E 036°44'0 0.0
2017-Dec-16 13:24N 45°29' E 036°44'0 0.0
2017-Dec-16 13:00N 45°29' E 036°44'0 0.0
2017-Dec-16 12:30N 45°29' E 036°44'0 0.0
2017-Dec-16 12:00N 45°29' E 036°44'0 0.0
2017-Dec-16 11:30N 45°29' E 036°44'0 0.0
2017-Dec-16 10:57N 45°29' E 036°44'0 0.0
2017-Dec-16 10:27N 45°29' E 036°44'0 0.0
2017-Dec-16 09:57N 45°29' E 036°44'0 0.0
2017-Dec-16 09:06N 45°29' E 036°44'0 0.0
2017-Dec-16 08:48N 45°29' E 036°44'0 0.0
2017-Dec-16 08:24N 45°29' E 036°44'0 0.0
2017-Dec-16 08:00N 45°29' E 036°44'0 0.1
2017-Dec-16 07:30N 45°29' E 036°44'0 0.0
2017-Dec-16 07:00N 45°29' E 036°44'0 0.0
2017-Dec-16 06:21N 45°29' E 036°44'0 0.0
2017-Dec-16 06:00N 45°29' E 036°44'0 0.0
2017-Dec-16 05:27N 45°29' E 036°44'0 0.0
2017-Dec-16 05:00N 45°29' E 036°44'0 0.0
2017-Dec-16 04:30N 45°29' E 036°44'0 0.0
2017-Dec-16 03:57N 45°29' E 036°44'0 0.0
2017-Dec-16 03:27N 45°29' E 036°44'0 0.0
2017-Dec-16 03:00N 45°29' E 036°44'0 0.0
2017-Dec-16 02:30N 45°29' E 036°44'0 0.0
2017-Dec-16 01:03N 45°29' E 036°44'0 0.1
2017-Dec-16 00:51N 45°29' E 036°44'0 0.0
2017-Dec-16 00:30N 45°29' E 036°44'0 0.0
2017-Dec-15 23:12N 45°29' E 036°44'0 0.0
2017-Dec-15 22:18N 45°29' E 036°44'0 0.0
2017-Dec-15 22:00N 45°29' E 036°44'0 0.0
2017-Dec-15 21:30N 45°29' E 036°44'0 0.0
2017-Dec-15 20:30N 45°29' E 036°44'0 0.0
2017-Dec-15 18:09N 45°29' E 036°44'0 0.0
2017-Dec-15 17:51N 45°29' E 036°44'0 0.0
2017-Dec-15 17:12N 45°29' E 036°44'0 0.0
2017-Dec-15 14:39N 45°29' E 036°44'0 0.0
2017-Dec-15 13:15N 45°29' E 036°44'0 0.0
2017-Dec-15 12:45N 45°29' E 036°44'0 0.1
2017-Dec-15 12:30N 45°29' E 036°44'0 0.0
2017-Dec-15 12:00N 45°29' E 036°44'0 0.0
2017-Dec-15 11:27N 45°29' E 036°44'0 0.0
2017-Dec-15 11:00N 45°29' E 036°44'0 0.1
2017-Dec-15 10:30N 45°29' E 036°44'0 0.0
2017-Dec-15 10:00N 45°29' E 036°44'0 0.1
2017-Dec-15 09:30N 45°29' E 036°44'0 0.0
2017-Dec-15 08:57N 45°29' E 036°44'0 0.0
2017-Dec-15 08:30N 45°29' E 036°44'0 0.1
2017-Dec-15 08:00N 45°29' E 036°44'0 0.0
2017-Dec-15 06:30N 45°29' E 036°44'0 0.0
2017-Dec-15 05:18N 45°29' E 036°44'0 0.1
2017-Dec-15 04:45N 45°29' E 036°44'0 0.1
2017-Dec-15 04:30N 45°29' E 036°44'0 0.0
2017-Dec-15 04:00N 45°29' E 036°44'0 0.0
2017-Dec-15 00:33N 45°29' E 036°44'0 0.0
2017-Dec-15 00:21N 45°29' E 036°44'0 0.0
2017-Dec-14 07:06N 45°29' E 036°44'0 0.0
2017-Dec-14 05:12N 45°29' E 036°44'0 0.0
2017-Dec-14 05:00N 45°29' E 036°44'0 0.0
2017-Dec-14 04:18N 45°29' E 036°44'0 0.0
2017-Dec-14 03:48N 45°29' E 036°44'0 0.0
2017-Dec-14 03:09N 45°29' E 036°44'0 0.0
2017-Dec-14 01:30N 45°29' E 036°44'0 0.0
2017-Dec-13 21:14N 45°29' E 036°44'0 0.0
2017-Dec-13 20:59N 45°29' E 036°44'0 0.0
2017-Dec-13 20:14N 45°29' E 036°44'0 0.0
2017-Dec-13 19:59N 45°29' E 036°44'0 0.0
2017-Dec-13 19:29N 45°29' E 036°44'0 0.0
2017-Dec-13 13:38N 45°29' E 036°44'0 0.0
2017-Dec-13 12:38N 45°29' E 036°44'0 0.0
2017-Dec-13 12:26N 45°29' E 036°44'0 0.0
2017-Dec-13 10:29N 45°29' E 036°44'0 0.0
2017-Dec-13 09:53N 45°29' E 036°44'0 0.0
2017-Dec-13 09:29N 45°29' E 036°44'0 0.0
2017-Dec-13 08:53N 45°29' E 036°44'0 0.0
2017-Dec-13 08:23N 45°29' E 036°44'0 0.0
2017-Dec-13 07:59N 45°29' E 036°44'0 0.0
2017-Dec-13 07:08N 45°29' E 036°44'0 0.0
2017-Dec-13 06:53N 45°29' E 036°44'0 0.0
2017-Dec-13 03:08N 45°29' E 036°44'0 0.0
2017-Dec-13 02:53N 45°29' E 036°44'0 0.0
2017-Dec-13 02:17N 45°29' E 036°44'0 0.0
2017-Dec-13 01:59N 45°29' E 036°44'0 0.0
2017-Dec-12 18:50N 45°29' E 036°44'0 0.0
2017-Dec-12 18:29N 45°29' E 036°44'0 0.0
2017-Dec-12 17:56N 45°29' E 036°44'0 0.0
2017-Dec-12 17:29N 45°29' E 036°44'0 0.0
2017-Dec-12 16:53N 45°29' E 036°44'0 0.0
2017-Dec-12 16:29N 45°29' E 036°44'0 0.0
2017-Dec-12 15:26N 45°29' E 036°44'0 0.0
2017-Dec-12 14:44N 45°29' E 036°44'0 0.0
2017-Dec-12 14:20N 45°29' E 036°44'0 0.0
2017-Dec-12 13:53N 45°29' E 036°44'0 0.0
2017-Dec-12 13:26N 45°29' E 036°44'0 0.0
2017-Dec-12 12:50N 45°29' E 036°44'0 0.0
2017-Dec-12 11:32N 45°29' E 036°44'0 0.0
2017-Dec-12 11:23N 45°29' E 036°44'0 0.0
2017-Dec-12 10:08N 45°29' E 036°44'0 0.0
2017-Dec-12 09:53N 45°29' E 036°44'0 0.0
2017-Dec-12 09:17N 45°29' E 036°44'0 0.0
2017-Dec-12 04:05N 45°29' E 036°44'0 0.0
2017-Dec-12 01:23N 45°29' E 036°44'0 0.0
2017-Dec-12 00:56N 45°29' E 036°44'0 0.0
2017-Dec-12 00:26N 45°29' E 036°44'0 0.0
2017-Dec-11 23:59N 45°29' E 036°44'0 0.0
2017-Dec-11 23:26N 45°29' E 036°44'0 0.0
2017-Dec-11 22:59N 45°29' E 036°44'0 0.0
2017-Dec-11 22:23N 45°29' E 036°44'  

Dump ship's entire track history